sensor_id;sensor_type;location;lat;lon;timestamp;temperature;humidity
528;DHT22;250;47.712;7.508;2022-10-16T00:01:09;16.60;48.70
528;DHT22;250;47.712;7.508;2022-10-16T00:03:37;16.60;48.70
528;DHT22;250;47.712;7.508;2022-10-16T00:06:05;16.60;49.20
528;DHT22;250;47.712;7.508;2022-10-16T00:08:33;16.60;49.00
528;DHT22;250;47.712;7.508;2022-10-16T00:11:03;16.60;49.20
528;DHT22;250;47.712;7.508;2022-10-16T00:13:30;16.60;49.20
528;DHT22;250;47.712;7.508;2022-10-16T00:15:59;16.60;49.60
528;DHT22;250;47.712;7.508;2022-10-16T00:18:27;16.50;50.20
528;DHT22;250;47.712;7.508;2022-10-16T00:20:55;16.50;50.20
528;DHT22;250;47.712;7.508;2022-10-16T00:23:22;16.50;50.20
528;DHT22;250;47.712;7.508;2022-10-16T00:25:58;16.50;50.20
528;DHT22;250;47.712;7.508;2022-10-16T00:28:25;16.50;50.20
528;DHT22;250;47.712;7.508;2022-10-16T00:30:53;16.50;50.20
528;DHT22;250;47.712;7.508;2022-10-16T00:33:20;16.50;50.20
528;DHT22;250;47.712;7.508;2022-10-16T00:35:48;16.40;50.10
528;DHT22;250;47.712;7.508;2022-10-16T00:38:15;16.40;50.10
528;DHT22;250;47.712;7.508;2022-10-16T00:40:42;16.40;50.10
528;DHT22;250;47.712;7.508;2022-10-16T00:43:14;16.40;50.10
528;DHT22;250;47.712;7.508;2022-10-16T00:45:59;16.40;50.10
528;DHT22;250;47.712;7.508;2022-10-16T00:48:27;16.40;50.10
528;DHT22;250;47.712;7.508;2022-10-16T00:50:54;16.50;50.20
528;DHT22;250;47.712;7.508;2022-10-16T00:53:21;16.50;50.20
528;DHT22;250;47.712;7.508;2022-10-16T00:55:48;16.50;50.20
528;DHT22;250;47.712;7.508;2022-10-16T00:58:17;16.50;50.20
528;DHT22;250;47.712;7.508;2022-10-16T01:00:44;16.60;49.70
528;DHT22;250;47.712;7.508;2022-10-16T01:03:24;16.60;49.20
528;DHT22;250;47.712;7.508;2022-10-16T01:05:58;16.60;48.50
528;DHT22;250;47.712;7.508;2022-10-16T01:08:31;16.70;48.40
528;DHT22;250;47.712;7.508;2022-10-16T01:11:04;16.70;47.80
528;DHT22;250;47.712;7.508;2022-10-16T01:13:40;16.70;47.80
528;DHT22;250;47.712;7.508;2022-10-16T01:16:11;16.80;47.80
528;DHT22;250;47.712;7.508;2022-10-16T01:18:44;16.70;47.90
528;DHT22;250;47.712;7.508;2022-10-16T01:21:15;16.80;47.60
528;DHT22;250;47.712;7.508;2022-10-16T01:23:50;16.80;46.80
528;DHT22;250;47.712;7.508;2022-10-16T01:26:31;16.80;46.20
528;DHT22;250;47.712;7.508;2022-10-16T01:29:04;16.80;46.10
528;DHT22;250;47.712;7.508;2022-10-16T01:31:36;16.70;46.00
528;DHT22;250;47.712;7.508;2022-10-16T01:34:07;16.70;46.60
528;DHT22;250;47.712;7.508;2022-10-16T01:36:39;16.60;46.70
528;DHT22;250;47.712;7.508;2022-10-16T01:39:09;16.60;47.00
528;DHT22;250;47.712;7.508;2022-10-16T01:41:40;16.50;47.70
528;DHT22;250;47.712;7.508;2022-10-16T01:44:11;16.50;47.90
528;DHT22;250;47.712;7.508;2022-10-16T01:46:43;16.50;48.50
528;DHT22;250;47.712;7.508;2022-10-16T01:49:13;16.60;47.80
528;DHT22;250;47.712;7.508;2022-10-16T01:51:42;16.50;47.70
528;DHT22;250;47.712;7.508;2022-10-16T01:54:12;16.50;47.60
528;DHT22;250;47.712;7.508;2022-10-16T01:56:41;16.50;47.70
528;DHT22;250;47.712;7.508;2022-10-16T01:59:13;16.60;47.60
528;DHT22;250;47.712;7.508;2022-10-16T02:01:44;16.60;47.30
528;DHT22;250;47.712;7.508;2022-10-16T02:04:15;16.60;47.50
528;DHT22;250;47.712;7.508;2022-10-16T02:06:43;16.60;47.20
528;DHT22;250;47.712;7.508;2022-10-16T02:09:10;16.60;47.00
528;DHT22;250;47.712;7.508;2022-10-16T02:11:37;16.70;46.70
528;DHT22;250;47.712;7.508;2022-10-16T02:14:05;16.60;47.00
528;DHT22;250;47.712;7.508;2022-10-16T02:16:36;16.70;47.00
528;DHT22;250;47.712;7.508;2022-10-16T02:19:05;16.70;46.80
528;DHT22;250;47.712;7.508;2022-10-16T02:21:39;16.70;46.70
528;DHT22;250;47.712;7.508;2022-10-16T02:24:11;16.60;46.90
528;DHT22;250;47.712;7.508;2022-10-16T02:26:45;16.60;47.00
528;DHT22;250;47.712;7.508;2022-10-16T02:29:19;16.60;46.80
528;DHT22;250;47.712;7.508;2022-10-16T02:31:50;16.60;47.10
528;DHT22;250;47.712;7.508;2022-10-16T02:34:21;16.50;47.20
528;DHT22;250;47.712;7.508;2022-10-16T02:36:50;16.60;47.60
528;DHT22;250;47.712;7.508;2022-10-16T02:39:18;16.60;47.20
528;DHT22;250;47.712;7.508;2022-10-16T02:41:46;16.50;47.30
528;DHT22;250;47.712;7.508;2022-10-16T02:44:14;16.50;47.50
528;DHT22;250;47.712;7.508;2022-10-16T02:46:40;16.40;47.90
528;DHT22;250;47.712;7.508;2022-10-16T02:49:09;16.40;49.10
528;DHT22;250;47.712;7.508;2022-10-16T02:51:36;16.40;48.30
528;DHT22;250;47.712;7.508;2022-10-16T02:54:03;16.40;48.30
528;DHT22;250;47.712;7.508;2022-10-16T02:56:30;16.40;48.30
528;DHT22;250;47.712;7.508;2022-10-16T02:58:57;16.40;48.30
528;DHT22;250;47.712;7.508;2022-10-16T03:01:24;16.40;48.40
528;DHT22;250;47.712;7.508;2022-10-16T03:03:51;16.40;48.70
528;DHT22;250;47.712;7.508;2022-10-16T03:06:20;16.40;48.50
528;DHT22;250;47.712;7.508;2022-10-16T03:08:47;16.40;48.30
528;DHT22;250;47.712;7.508;2022-10-16T03:11:14;16.40;48.20
528;DHT22;250;47.712;7.508;2022-10-16T03:13:41;16.40;48.40
528;DHT22;250;47.712;7.508;2022-10-16T03:16:08;16.30;48.80
528;DHT22;250;47.712;7.508;2022-10-16T03:18:35;16.30;49.00
528;DHT22;250;47.712;7.508;2022-10-16T03:21:02;16.40;48.70
528;DHT22;250;47.712;7.508;2022-10-16T03:23:30;16.40;48.50
528;DHT22;250;47.712;7.508;2022-10-16T03:25:57;16.30;48.60
528;DHT22;250;47.712;7.508;2022-10-16T03:28:24;16.30;49.80
528;DHT22;250;47.712;7.508;2022-10-16T03:30:51;16.30;49.20
528;DHT22;250;47.712;7.508;2022-10-16T03:33:18;16.30;49.20
528;DHT22;250;47.712;7.508;2022-10-16T03:35:51;16.30;49.20
528;DHT22;250;47.712;7.508;2022-10-16T03:38:18;16.30;48.60
528;DHT22;250;47.712;7.508;2022-10-16T03:40:47;16.30;49.00
528;DHT22;250;47.712;7.508;2022-10-16T03:43:14;16.40;48.90
528;DHT22;250;47.712;7.508;2022-10-16T03:45:41;16.40;48.40
528;DHT22;250;47.712;7.508;2022-10-16T03:48:08;16.40;48.50
528;DHT22;250;47.712;7.508;2022-10-16T03:50:35;16.30;48.70
528;DHT22;250;47.712;7.508;2022-10-16T03:53:02;16.30;49.00
528;DHT22;250;47.712;7.508;2022-10-16T03:55:29;16.30;49.00
528;DHT22;250;47.712;7.508;2022-10-16T03:57:57;16.20;49.10
528;DHT22;250;47.712;7.508;2022-10-16T04:00:24;16.20;50.00
528;DHT22;250;47.712;7.508;2022-10-16T04:02:51;16.20;49.70
528;DHT22;250;47.712;7.508;2022-10-16T04:05:18;16.20;49.90
528;DHT22;250;47.712;7.508;2022-10-16T04:07:45;16.20;50.00
528;DHT22;250;47.712;7.508;2022-10-16T04:10:12;16.20;50.40
528;DHT22;250;47.712;7.508;2022-10-16T04:12:39;16.30;49.20
528;DHT22;250;47.712;7.508;2022-10-16T04:15:08;16.20;49.50
528;DHT22;250;47.712;7.508;2022-10-16T04:17:35;16.20;49.40
528;DHT22;250;47.712;7.508;2022-10-16T04:20:03;16.20;49.30
528;DHT22;250;47.712;7.508;2022-10-16T04:22:30;16.20;49.30
528;DHT22;250;47.712;7.508;2022-10-16T04:24:57;16.20;49.90
528;DHT22;250;47.712;7.508;2022-10-16T04:27:24;16.10;49.90
528;DHT22;250;47.712;7.508;2022-10-16T04:29:51;16.20;50.00
528;DHT22;250;47.712;7.508;2022-10-16T04:32:19;16.10;49.90
528;DHT22;250;47.712;7.508;2022-10-16T04:34:46;16.20;50.00
528;DHT22;250;47.712;7.508;2022-10-16T04:37:13;16.20;49.90
528;DHT22;250;47.712;7.508;2022-10-16T04:39:40;16.20;49.80
528;DHT22;250;47.712;7.508;2022-10-16T04:42:07;16.10;49.80
528;DHT22;250;47.712;7.508;2022-10-16T04:44:34;16.20;49.70
528;DHT22;250;47.712;7.508;2022-10-16T04:47:01;16.10;49.40
528;DHT22;250;47.712;7.508;2022-10-16T04:49:29;16.10;49.80
528;DHT22;250;47.712;7.508;2022-10-16T04:51:56;16.10;49.90
528;DHT22;250;47.712;7.508;2022-10-16T04:54:23;16.10;49.90
528;DHT22;250;47.712;7.508;2022-10-16T04:56:50;16.10;49.90
528;DHT22;250;47.712;7.508;2022-10-16T04:59:18;16.10;49.90
528;DHT22;250;47.712;7.508;2022-10-16T05:01:46;16.10;49.80
528;DHT22;250;47.712;7.508;2022-10-16T05:04:13;16.20;49.50
528;DHT22;250;47.712;7.508;2022-10-16T05:06:42;16.20;48.60
528;DHT22;250;47.712;7.508;2022-10-16T05:09:09;16.20;48.40
528;DHT22;250;47.712;7.508;2022-10-16T05:11:36;16.20;48.70
528;DHT22;250;47.712;7.508;2022-10-16T05:14:03;16.30;48.40
528;DHT22;250;47.712;7.508;2022-10-16T05:16:30;16.30;48.00
528;DHT22;250;47.712;7.508;2022-10-16T05:18:58;16.30;48.00
528;DHT22;250;47.712;7.508;2022-10-16T05:21:25;16.30;48.00
528;DHT22;250;47.712;7.508;2022-10-16T05:23:54;16.30;47.50
528;DHT22;250;47.712;7.508;2022-10-16T05:26:21;16.30;47.50
528;DHT22;250;47.712;7.508;2022-10-16T05:28:49;16.30;47.80
528;DHT22;250;47.712;7.508;2022-10-16T05:31:16;16.30;47.90
528;DHT22;250;47.712;7.508;2022-10-16T05:33:43;16.30;48.30
528;DHT22;250;47.712;7.508;2022-10-16T05:36:10;16.30;47.50
528;DHT22;250;47.712;7.508;2022-10-16T05:38:38;16.30;47.40
528;DHT22;250;47.712;7.508;2022-10-16T05:41:07;16.30;47.20
528;DHT22;250;47.712;7.508;2022-10-16T05:43:34;16.30;47.10
528;DHT22;250;47.712;7.508;2022-10-16T05:46:02;16.30;47.10
528;DHT22;250;47.712;7.508;2022-10-16T05:48:30;16.20;47.30
528;DHT22;250;47.712;7.508;2022-10-16T05:50:58;16.20;47.50
528;DHT22;250;47.712;7.508;2022-10-16T05:53:26;16.20;47.80
528;DHT22;250;47.712;7.508;2022-10-16T05:55:54;16.20;47.30
528;DHT22;250;47.712;7.508;2022-10-16T05:58:23;16.30;47.10
528;DHT22;250;47.712;7.508;2022-10-16T06:00:54;16.30;47.10
528;DHT22;250;47.712;7.508;2022-10-16T06:03:21;16.30;46.70
528;DHT22;250;47.712;7.508;2022-10-16T06:05:48;16.30;46.80
528;DHT22;250;47.712;7.508;2022-10-16T06:08:15;16.30;46.80
528;DHT22;250;47.712;7.508;2022-10-16T06:10:42;16.30;47.10
528;DHT22;250;47.712;7.508;2022-10-16T06:13:10;16.30;46.60
528;DHT22;250;47.712;7.508;2022-10-16T06:15:41;16.30;47.10
528;DHT22;250;47.712;7.508;2022-10-16T06:18:09;16.40;46.30
528;DHT22;250;47.712;7.508;2022-10-16T06:20:36;16.40;46.40
528;DHT22;250;47.712;7.508;2022-10-16T06:23:03;16.40;46.60
528;DHT22;250;47.712;7.508;2022-10-16T06:25:30;16.40;46.50
528;DHT22;250;47.712;7.508;2022-10-16T06:27:57;16.40;45.90
528;DHT22;250;47.712;7.508;2022-10-16T06:30:24;16.40;46.10
528;DHT22;250;47.712;7.508;2022-10-16T06:32:53;16.50;46.10
528;DHT22;250;47.712;7.508;2022-10-16T06:35:20;16.50;45.90
528;DHT22;250;47.712;7.508;2022-10-16T06:37:47;16.50;46.10
528;DHT22;250;47.712;7.508;2022-10-16T06:40:14;16.50;46.50
528;DHT22;250;47.712;7.508;2022-10-16T06:42:41;16.50;46.20
528;DHT22;250;47.712;7.508;2022-10-16T06:45:09;16.50;46.00
528;DHT22;250;47.712;7.508;2022-10-16T06:47:36;16.60;46.10
528;DHT22;250;47.712;7.508;2022-10-16T06:50:06;16.60;46.20
528;DHT22;250;47.712;7.508;2022-10-16T06:52:33;16.60;45.70
528;DHT22;250;47.712;7.508;2022-10-16T06:55:00;16.60;45.50
528;DHT22;250;47.712;7.508;2022-10-16T06:57:28;16.60;45.50
528;DHT22;250;47.712;7.508;2022-10-16T06:59:55;16.60;45.90
528;DHT22;250;47.712;7.508;2022-10-16T07:02:22;16.60;45.50
528;DHT22;250;47.712;7.508;2022-10-16T07:04:49;16.60;45.50
528;DHT22;250;47.712;7.508;2022-10-16T07:07:18;16.60;46.20
528;DHT22;250;47.712;7.508;2022-10-16T07:09:44;16.60;45.60
528;DHT22;250;47.712;7.508;2022-10-16T07:12:11;16.60;46.00
528;DHT22;250;47.712;7.508;2022-10-16T07:14:38;16.60;46.40
528;DHT22;250;47.712;7.508;2022-10-16T07:17:05;16.60;46.20
528;DHT22;250;47.712;7.508;2022-10-16T07:19:32;16.70;46.70
528;DHT22;250;47.712;7.508;2022-10-16T07:21:59;16.70;46.60
528;DHT22;250;47.712;7.508;2022-10-16T07:24:28;16.70;46.50
528;DHT22;250;47.712;7.508;2022-10-16T07:26:55;16.70;46.60
528;DHT22;250;47.712;7.508;2022-10-16T07:29:22;16.80;46.50
528;DHT22;250;47.712;7.508;2022-10-16T07:31:49;16.80;45.70
528;DHT22;250;47.712;7.508;2022-10-16T07:34:18;16.90;45.80
528;DHT22;250;47.712;7.508;2022-10-16T07:36:47;16.90;46.20
528;DHT22;250;47.712;7.508;2022-10-16T07:39:14;17.00;45.90
528;DHT22;250;47.712;7.508;2022-10-16T07:41:43;17.00;45.90
528;DHT22;250;47.712;7.508;2022-10-16T07:44:10;17.10;46.00
528;DHT22;250;47.712;7.508;2022-10-16T07:46:37;17.20;46.10
528;DHT22;250;47.712;7.508;2022-10-16T07:49:04;17.30;45.50
528;DHT22;250;47.712;7.508;2022-10-16T07:51:31;17.30;45.00
528;DHT22;250;47.712;7.508;2022-10-16T07:53:58;17.40;45.00
528;DHT22;250;47.712;7.508;2022-10-16T07:56:25;17.40;44.70
528;DHT22;250;47.712;7.508;2022-10-16T07:58:53;17.40;44.70
528;DHT22;250;47.712;7.508;2022-10-16T08:01:21;17.40;44.60
528;DHT22;250;47.712;7.508;2022-10-16T08:03:50;17.50;44.80
528;DHT22;250;47.712;7.508;2022-10-16T08:06:18;17.50;45.40
528;DHT22;250;47.712;7.508;2022-10-16T08:08:45;17.60;45.00
528;DHT22;250;47.712;7.508;2022-10-16T08:11:13;17.80;44.50
528;DHT22;250;47.712;7.508;2022-10-16T08:13:40;18.00;44.10
528;DHT22;250;47.712;7.508;2022-10-16T08:16:09;18.10;43.90
528;DHT22;250;47.712;7.508;2022-10-16T08:18:37;18.30;43.20
528;DHT22;250;47.712;7.508;2022-10-16T08:21:06;18.30;41.30
528;DHT22;250;47.712;7.508;2022-10-16T08:23:33;18.40;41.60
528;DHT22;250;47.712;7.508;2022-10-16T08:26:04;18.50;42.40
528;DHT22;250;47.712;7.508;2022-10-16T08:28:32;18.60;41.80
528;DHT22;250;47.712;7.508;2022-10-16T08:31:06;18.70;41.00
528;DHT22;250;47.712;7.508;2022-10-16T08:33:34;18.80;40.30
528;DHT22;250;47.712;7.508;2022-10-16T08:36:02;19.00;39.60
528;DHT22;250;47.712;7.508;2022-10-16T08:38:29;19.00;39.80
528;DHT22;250;47.712;7.508;2022-10-16T08:41:09;19.20;39.80
528;DHT22;250;47.712;7.508;2022-10-16T08:43:50;19.30;38.20
528;DHT22;250;47.712;7.508;2022-10-16T08:46:29;19.30;36.90
528;DHT22;250;47.712;7.508;2022-10-16T08:49:03;19.40;36.10
528;DHT22;250;47.712;7.508;2022-10-16T08:51:32;19.50;37.20
528;DHT22;250;47.712;7.508;2022-10-16T08:54:03;19.60;36.40
528;DHT22;250;47.712;7.508;2022-10-16T08:56:31;19.70;36.70
528;DHT22;250;47.712;7.508;2022-10-16T08:58:59;19.80;35.70
528;DHT22;250;47.712;7.508;2022-10-16T09:01:35;19.90;36.00
528;DHT22;250;47.712;7.508;2022-10-16T09:07:10;20.30;34.20
528;DHT22;250;47.712;7.508;2022-10-16T09:10:01;20.40;34.10
528;DHT22;250;47.712;7.508;2022-10-16T09:12:33;20.50;34.30
528;DHT22;250;47.712;7.508;2022-10-16T09:15:17;20.70;33.00
528;DHT22;250;47.712;7.508;2022-10-16T09:17:53;20.70;31.90
528;DHT22;250;47.712;7.508;2022-10-16T09:20:33;20.70;31.50
528;DHT22;250;47.712;7.508;2022-10-16T09:23:14;20.70;31.70
528;DHT22;250;47.712;7.508;2022-10-16T09:25:44;20.60;32.10
528;DHT22;250;47.712;7.508;2022-10-16T09:28:13;20.60;32.00
528;DHT22;250;47.712;7.508;2022-10-16T09:30:40;20.50;32.00
528;DHT22;250;47.712;7.508;2022-10-16T09:33:09;20.50;32.30
528;DHT22;250;47.712;7.508;2022-10-16T09:35:40;20.50;32.40
528;DHT22;250;47.712;7.508;2022-10-16T09:38:08;20.40;32.60
528;DHT22;250;47.712;7.508;2022-10-16T09:40:37;20.40;33.20
528;DHT22;250;47.712;7.508;2022-10-16T09:43:19;20.40;32.80
528;DHT22;250;47.712;7.508;2022-10-16T09:45:54;20.40;33.40
528;DHT22;250;47.712;7.508;2022-10-16T09:48:22;20.40;33.00
528;DHT22;250;47.712;7.508;2022-10-16T09:50:59;20.50;33.90
528;DHT22;250;47.712;7.508;2022-10-16T09:53:41;20.50;33.30
528;DHT22;250;47.712;7.508;2022-10-16T09:56:10;20.60;33.00
528;DHT22;250;47.712;7.508;2022-10-16T09:58:42;20.60;32.80
528;DHT22;250;47.712;7.508;2022-10-16T10:01:13;20.70;32.70
528;DHT22;250;47.712;7.508;2022-10-16T10:03:42;20.90;32.50
528;DHT22;250;47.712;7.508;2022-10-16T10:06:22;21.00;31.80
528;DHT22;250;47.712;7.508;2022-10-16T10:08:58;21.10;32.20
528;DHT22;250;47.712;7.508;2022-10-16T10:11:48;21.20;30.80
528;DHT22;250;47.712;7.508;2022-10-16T10:14:19;21.20;30.40
528;DHT22;250;47.712;7.508;2022-10-16T10:16:47;21.30;31.10
528;DHT22;250;47.712;7.508;2022-10-16T10:19:16;21.30;30.80
528;DHT22;250;47.712;7.508;2022-10-16T10:21:45;21.40;30.00
528;DHT22;250;47.712;7.508;2022-10-16T10:24:13;21.50;30.10
528;DHT22;250;47.712;7.508;2022-10-16T10:26:48;21.60;30.20
528;DHT22;250;47.712;7.508;2022-10-16T10:29:21;21.70;30.00
528;DHT22;250;47.712;7.508;2022-10-16T10:31:56;21.80;29.20
528;DHT22;250;47.712;7.508;2022-10-16T10:34:37;21.90;28.50
528;DHT22;250;47.712;7.508;2022-10-16T10:37:14;21.90;29.20
528;DHT22;250;47.712;7.508;2022-10-16T10:39:53;22.00;27.90
528;DHT22;250;47.712;7.508;2022-10-16T10:42:25;22.10;28.50
528;DHT22;250;47.712;7.508;2022-10-16T10:45:11;22.10;27.80
528;DHT22;250;47.712;7.508;2022-10-16T10:47:50;22.20;27.00
528;DHT22;250;47.712;7.508;2022-10-16T10:50:24;22.20;26.70
528;DHT22;250;47.712;7.508;2022-10-16T10:53:06;22.20;27.20
528;DHT22;250;47.712;7.508;2022-10-16T10:55:39;22.20;27.30
528;DHT22;250;47.712;7.508;2022-10-16T10:58:40;22.30;27.50
528;DHT22;250;47.712;7.508;2022-10-16T11:01:12;22.40;26.90
528;DHT22;250;47.712;7.508;2022-10-16T11:04:07;22.40;26.90
528;DHT22;250;47.712;7.508;2022-10-16T11:06:39;22.50;26.20
528;DHT22;250;47.712;7.508;2022-10-16T11:09:12;22.60;26.40
528;DHT22;250;47.712;7.508;2022-10-16T11:11:44;22.70;26.40
528;DHT22;250;47.712;7.508;2022-10-16T11:14:16;22.70;26.00
528;DHT22;250;47.712;7.508;2022-10-16T11:16:48;22.70;25.80
528;DHT22;250;47.712;7.508;2022-10-16T11:19:25;22.80;25.90
528;DHT22;250;47.712;7.508;2022-10-16T11:21:59;22.70;24.50
528;DHT22;250;47.712;7.508;2022-10-16T11:24:37;22.70;24.90
528;DHT22;250;47.712;7.508;2022-10-16T11:27:10;22.80;25.40
528;DHT22;250;47.712;7.508;2022-10-16T11:29:46;22.90;25.50
528;DHT22;250;47.712;7.508;2022-10-16T11:32:21;22.90;25.00
528;DHT22;250;47.712;7.508;2022-10-16T11:34:52;22.90;24.80
528;DHT22;250;47.712;7.508;2022-10-16T11:37:23;23.00;24.60
528;DHT22;250;47.712;7.508;2022-10-16T11:39:58;23.00;24.00
528;DHT22;250;47.712;7.508;2022-10-16T11:42:30;23.10;24.00
528;DHT22;250;47.712;7.508;2022-10-16T11:45:03;23.10;23.80
528;DHT22;250;47.712;7.508;2022-10-16T11:47:36;23.20;22.50
528;DHT22;250;47.712;7.508;2022-10-16T11:50:12;23.30;23.00
528;DHT22;250;47.712;7.508;2022-10-16T11:52:44;23.30;21.80
528;DHT22;250;47.712;7.508;2022-10-16T11:55:18;23.40;21.80
528;DHT22;250;47.712;7.508;2022-10-16T11:57:49;23.40;21.50
528;DHT22;250;47.712;7.508;2022-10-16T12:00:22;23.50;22.20
528;DHT22;250;47.712;7.508;2022-10-16T12:02:57;23.60;20.60
528;DHT22;250;47.712;7.508;2022-10-16T12:05:35;23.70;21.20
528;DHT22;250;47.712;7.508;2022-10-16T12:08:09;23.70;21.00
528;DHT22;250;47.712;7.508;2022-10-16T12:10:39;23.70;20.60
528;DHT22;250;47.712;7.508;2022-10-16T12:13:29;23.80;20.30
528;DHT22;250;47.712;7.508;2022-10-16T12:16:19;23.80;20.80
528;DHT22;250;47.712;7.508;2022-10-16T12:18:47;23.90;20.80
528;DHT22;250;47.712;7.508;2022-10-16T12:21:16;24.00;20.60
528;DHT22;250;47.712;7.508;2022-10-16T12:23:49;24.10;20.40
528;DHT22;250;47.712;7.508;2022-10-16T12:26:26;24.10;19.90
528;DHT22;250;47.712;7.508;2022-10-16T12:28:54;24.10;20.50
528;DHT22;250;47.712;7.508;2022-10-16T12:31:22;24.20;21.00
528;DHT22;250;47.712;7.508;2022-10-16T12:33:57;24.30;19.90
528;DHT22;250;47.712;7.508;2022-10-16T12:36:29;24.30;20.20
528;DHT22;250;47.712;7.508;2022-10-16T12:38:57;24.40;19.90
528;DHT22;250;47.712;7.508;2022-10-16T12:41:28;24.50;19.80
528;DHT22;250;47.712;7.508;2022-10-16T12:43:55;24.50;19.30
528;DHT22;250;47.712;7.508;2022-10-16T12:46:38;24.60;19.30
528;DHT22;250;47.712;7.508;2022-10-16T12:49:22;24.60;19.90
528;DHT22;250;47.712;7.508;2022-10-16T12:51:55;24.70;19.70
528;DHT22;250;47.712;7.508;2022-10-16T12:54:26;24.70;20.00
528;DHT22;250;47.712;7.508;2022-10-16T12:57:19;24.80;18.80
528;DHT22;250;47.712;7.508;2022-10-16T12:59:54;24.80;19.00
528;DHT22;250;47.712;7.508;2022-10-16T13:03:00;24.80;19.00
528;DHT22;250;47.712;7.508;2022-10-16T13:05:38;24.80;18.80
528;DHT22;250;47.712;7.508;2022-10-16T13:08:29;24.90;18.60
528;DHT22;250;47.712;7.508;2022-10-16T13:11:05;24.90;18.80
528;DHT22;250;47.712;7.508;2022-10-16T13:13:50;25.00;18.40
528;DHT22;250;47.712;7.508;2022-10-16T13:16:24;25.00;18.50
528;DHT22;250;47.712;7.508;2022-10-16T13:19:03;25.10;18.30
528;DHT22;250;47.712;7.508;2022-10-16T13:21:42;25.10;18.60
528;DHT22;250;47.712;7.508;2022-10-16T13:24:19;25.00;18.20
528;DHT22;250;47.712;7.508;2022-10-16T13:26:54;25.00;18.00
528;DHT22;250;47.712;7.508;2022-10-16T13:29:30;25.00;17.60
528;DHT22;250;47.712;7.508;2022-10-16T13:31:58;25.00;17.90
528;DHT22;250;47.712;7.508;2022-10-16T13:34:25;25.00;18.60
528;DHT22;250;47.712;7.508;2022-10-16T13:36:53;25.00;18.30
528;DHT22;250;47.712;7.508;2022-10-16T13:39:23;25.00;17.70
528;DHT22;250;47.712;7.508;2022-10-16T13:42:06;25.00;17.80
528;DHT22;250;47.712;7.508;2022-10-16T13:44:41;25.00;17.50
528;DHT22;250;47.712;7.508;2022-10-16T13:47:16;25.10;18.10
528;DHT22;250;47.712;7.508;2022-10-16T13:49:44;25.10;18.10
528;DHT22;250;47.712;7.508;2022-10-16T13:52:19;25.20;17.80
528;DHT22;250;47.712;7.508;2022-10-16T13:54:47;25.20;17.60
528;DHT22;250;47.712;7.508;2022-10-16T13:57:14;25.20;17.80
528;DHT22;250;47.712;7.508;2022-10-16T13:59:43;25.20;17.90
528;DHT22;250;47.712;7.508;2022-10-16T14:02:18;25.20;17.60
528;DHT22;250;47.712;7.508;2022-10-16T14:04:46;25.20;18.10
528;DHT22;250;47.712;7.508;2022-10-16T14:07:16;25.10;17.90
528;DHT22;250;47.712;7.508;2022-10-16T14:09:48;25.10;17.90
528;DHT22;250;47.712;7.508;2022-10-16T14:12:16;25.10;18.10
528;DHT22;250;47.712;7.508;2022-10-16T14:14:46;25.10;17.70
528;DHT22;250;47.712;7.508;2022-10-16T14:17:14;25.10;17.80
528;DHT22;250;47.712;7.508;2022-10-16T14:19:46;25.10;17.50
528;DHT22;250;47.712;7.508;2022-10-16T14:22:27;25.10;17.70
528;DHT22;250;47.712;7.508;2022-10-16T14:24:55;25.10;17.70
528;DHT22;250;47.712;7.508;2022-10-16T14:27:28;25.10;17.50
528;DHT22;250;47.712;7.508;2022-10-16T14:30:13;25.10;17.00
528;DHT22;250;47.712;7.508;2022-10-16T14:32:41;25.10;16.60
528;DHT22;250;47.712;7.508;2022-10-16T14:35:24;25.20;16.70
528;DHT22;250;47.712;7.508;2022-10-16T14:37:52;25.10;16.90
528;DHT22;250;47.712;7.508;2022-10-16T14:40:21;25.20;16.50
528;DHT22;250;47.712;7.508;2022-10-16T14:42:50;25.20;16.60
528;DHT22;250;47.712;7.508;2022-10-16T14:45:20;25.20;16.80
528;DHT22;250;47.712;7.508;2022-10-16T14:47:50;25.20;16.80
528;DHT22;250;47.712;7.508;2022-10-16T14:50:17;25.20;16.40
528;DHT22;250;47.712;7.508;2022-10-16T14:52:44;25.20;16.20
528;DHT22;250;47.712;7.508;2022-10-16T14:55:11;25.10;16.40
528;DHT22;250;47.712;7.508;2022-10-16T14:57:39;25.10;16.60
528;DHT22;250;47.712;7.508;2022-10-16T15:00:13;25.00;16.50
528;DHT22;250;47.712;7.508;2022-10-16T15:02:43;25.00;16.70
528;DHT22;250;47.712;7.508;2022-10-16T15:05:14;25.00;17.10
528;DHT22;250;47.712;7.508;2022-10-16T15:07:42;25.00;17.60
528;DHT22;250;47.712;7.508;2022-10-16T15:10:09;24.90;17.80
528;DHT22;250;47.712;7.508;2022-10-16T15:12:37;24.80;17.90
528;DHT22;250;47.712;7.508;2022-10-16T15:15:21;24.70;17.40
528;DHT22;250;47.712;7.508;2022-10-16T15:17:52;24.70;17.70
528;DHT22;250;47.712;7.508;2022-10-16T15:20:21;24.70;17.70
528;DHT22;250;47.712;7.508;2022-10-16T15:22:48;24.60;18.10
528;DHT22;250;47.712;7.508;2022-10-16T15:25:32;24.60;18.00
528;DHT22;250;47.712;7.508;2022-10-16T15:28:00;24.50;18.10
528;DHT22;250;47.712;7.508;2022-10-16T15:30:27;24.60;18.20
528;DHT22;250;47.712;7.508;2022-10-16T15:32:56;24.60;18.20
528;DHT22;250;47.712;7.508;2022-10-16T15:35:23;24.50;18.20
528;DHT22;250;47.712;7.508;2022-10-16T15:37:50;24.40;18.60
528;DHT22;250;47.712;7.508;2022-10-16T15:40:18;24.40;18.60
528;DHT22;250;47.712;7.508;2022-10-16T15:42:46;24.40;19.10
528;DHT22;250;47.712;7.508;2022-10-16T15:45:13;24.40;19.40
528;DHT22;250;47.712;7.508;2022-10-16T15:47:41;24.30;20.00
528;DHT22;250;47.712;7.508;2022-10-16T15:50:11;24.20;20.00
528;DHT22;250;47.712;7.508;2022-10-16T15:52:38;24.20;20.00
528;DHT22;250;47.712;7.508;2022-10-16T15:55:07;24.20;20.40
528;DHT22;250;47.712;7.508;2022-10-16T15:57:36;24.10;21.00
528;DHT22;250;47.712;7.508;2022-10-16T16:00:07;24.10;21.70
528;DHT22;250;47.712;7.508;2022-10-16T16:02:35;23.90;21.50
528;DHT22;250;47.712;7.508;2022-10-16T16:05:02;23.90;21.50
528;DHT22;250;47.712;7.508;2022-10-16T16:07:32;23.80;21.70
528;DHT22;250;47.712;7.508;2022-10-16T16:09:59;23.70;22.80
528;DHT22;250;47.712;7.508;2022-10-16T16:12:26;23.70;22.90
528;DHT22;250;47.712;7.508;2022-10-16T16:14:53;23.60;21.90
528;DHT22;250;47.712;7.508;2022-10-16T16:17:20;23.60;21.00
528;DHT22;250;47.712;7.508;2022-10-16T16:19:47;23.50;21.50
528;DHT22;250;47.712;7.508;2022-10-16T16:22:14;23.40;21.90
528;DHT22;250;47.712;7.508;2022-10-16T16:24:43;23.40;21.90
528;DHT22;250;47.712;7.508;2022-10-16T16:27:10;23.30;22.10
528;DHT22;250;47.712;7.508;2022-10-16T16:29:39;23.30;22.00
528;DHT22;250;47.712;7.508;2022-10-16T16:32:06;23.20;22.10
528;DHT22;250;47.712;7.508;2022-10-16T16:34:33;23.10;22.50
528;DHT22;250;47.712;7.508;2022-10-16T16:37:00;23.10;22.70
528;DHT22;250;47.712;7.508;2022-10-16T16:39:27;23.00;22.80
528;DHT22;250;47.712;7.508;2022-10-16T16:41:57;22.90;23.00
528;DHT22;250;47.712;7.508;2022-10-16T16:44:25;22.80;23.10
528;DHT22;250;47.712;7.508;2022-10-16T16:46:52;22.70;23.50
528;DHT22;250;47.712;7.508;2022-10-16T16:49:20;22.70;23.80
528;DHT22;250;47.712;7.508;2022-10-16T16:51:47;22.70;24.10
528;DHT22;250;47.712;7.508;2022-10-16T16:54:14;22.60;23.80
528;DHT22;250;47.712;7.508;2022-10-16T16:56:41;22.50;23.80
528;DHT22;250;47.712;7.508;2022-10-16T16:59:15;22.40;23.70